PWSweather.com
Personal Weather Stations
Station Observations
KA1WBH
West Island, Fairhaven, MA 02719

West IslandFairhaven, MA 02719

Lat: 41.5979996, Lon: -70.8330002

Elevation: 78

Station Type: Davis Vantage Pro II

Latest ConditionsUpdated 6:05:05 AM EDT Saturday, Oct 25, 2014
Currently Today's Max Today's Min Today's Average
Temperature 46.8°F8.2°C 49.6°F9.8°C 46.5°F8.1°C 47.4°F8.6°C
Dew Point 44.3°F6.8°C 45.3°F7.4°C 43.9°F6.6°C 44.3°F6.8°C
Winds Calm Calm 7.0 mph NW11.3 kmh NW - 2.8 mph 4.5 kmh
Wind Gusts 5.0 mph8.0 kmh 12.0 mph19.3 kmh - -
Humidity 91% 91% 85% 89%
Pressure 29.79 in1008.8 mb 29.79 in1008.8 mb 29.76 in1007.8 mb -
Hour Temp Dew Point Humidity Winds Wind Gusts Pressure Precip Precip Rate Daily Precip Total
06:05 AM 46.8°F8.2°C 44.3°F6.8°C 91% Calm Calm 5.0 mph8.0 kmh 29.79 in1008.8 mb 0.00 in0.0 mm 0.00 in/hr0.0 mm/hr 0.00 in0.0 mm
05:50 AM 46.9°F8.3°C 44.1°F6.7°C 90% 1.0 mph WNW1.6 kmh WNW 6.0 mph9.7 kmh 29.79 in1008.8 mb 0.00 in0.0 mm 0.00 in/hr0.0 mm/hr 0.00 in0.0 mm
05:35 AM 46.7°F8.2°C 43.9°F6.6°C 90% 1.0 mph NW1.6 kmh NW 6.0 mph9.7 kmh 29.78 in1008.5 mb 0.00 in0.0 mm 0.00 in/hr0.0 mm/hr 0.00 in0.0 mm
05:20 AM 46.8°F8.2°C 44.0°F6.7°C 90% 7.0 mph NW11.3 kmh NW 8.0 mph12.9 kmh 29.78 in1008.5 mb 0.00 in0.0 mm 0.00 in/hr0.0 mm/hr 0.00 in0.0 mm
05:05 AM 46.7°F8.2°C 44.2°F6.8°C 91% 2.0 mph WNW3.2 kmh WNW 9.0 mph14.5 kmh 29.78 in1008.5 mb 0.00 in0.0 mm 0.00 in/hr0.0 mm/hr 0.00 in0.0 mm
04:50 AM 46.5°F8.1°C 44.0°F6.7°C 91% 2.0 mph NW3.2 kmh NW 10.0 mph16.1 kmh 29.78 in1008.5 mb 0.00 in0.0 mm 0.00 in/hr0.0 mm/hr 0.00 in0.0 mm
04:35 AM 46.5°F8.1°C 44.0°F6.7°C 91% 3.0 mph NW4.8 kmh NW 9.0 mph14.5 kmh 29.77 in1008.1 mb 0.00 in0.0 mm 0.00 in/hr0.0 mm/hr 0.00 in0.0 mm
04:20 AM 46.7°F8.2°C 43.9°F6.6°C 90% 7.0 mph NW11.3 kmh NW 8.0 mph12.9 kmh 29.78 in1008.5 mb 0.00 in0.0 mm 0.00 in/hr0.0 mm/hr 0.00 in0.0 mm
04:05 AM 46.9°F8.3°C 44.1°F6.7°C 90% 4.0 mph WNW6.4 kmh WNW 7.0 mph11.3 kmh 29.77 in1008.1 mb 0.00 in0.0 mm 0.00 in/hr0.0 mm/hr 0.00 in0.0 mm
03:50 AM 46.7°F8.2°C 44.2°F6.8°C 91% 3.0 mph NW4.8 kmh NW 7.0 mph11.3 kmh 29.77 in1008.1 mb 0.00 in0.0 mm 0.00 in/hr0.0 mm/hr 0.00 in0.0 mm
03:35 AM 46.7°F8.2°C 44.2°F6.8°C 91% 6.0 mph NW9.7 kmh NW 12.0 mph19.3 kmh 29.77 in1008.1 mb 0.00 in0.0 mm 0.00 in/hr0.0 mm/hr 0.00 in0.0 mm
03:25 AM 46.6°F8.1°C 44.1°F6.7°C 91% 4.0 mph WNW6.4 kmh WNW 9.0 mph14.5 kmh 29.77 in1008.1 mb 0.00 in0.0 mm 0.00 in/hr0.0 mm/hr 0.00 in0.0 mm
03:10 AM 46.8°F8.2°C 44.0°F6.7°C 90% Calm Calm 10.0 mph16.1 kmh 29.78 in1008.5 mb 0.00 in0.0 mm 0.00 in/hr0.0 mm/hr 0.00 in0.0 mm
02:55 AM 47.0°F8.3°C 44.2°F6.8°C 90% 3.0 mph NW4.8 kmh NW 8.0 mph12.9 kmh 29.77 in1008.1 mb 0.00 in0.0 mm 0.00 in/hr0.0 mm/hr 0.00 in0.0 mm
02:40 AM 47.1°F8.4°C 44.0°F6.7°C 89% 5.0 mph NW8.0 kmh NW 7.0 mph11.3 kmh 29.77 in1008.1 mb 0.00 in0.0 mm 0.00 in/hr0.0 mm/hr 0.00 in0.0 mm
02:25 AM 47.3°F8.5°C 44.2°F6.8°C 89% 2.0 mph NW3.2 kmh NW 8.0 mph12.9 kmh 29.77 in1008.1 mb 0.00 in0.0 mm 0.00 in/hr0.0 mm/hr 0.00 in0.0 mm
02:10 AM 47.3°F8.5°C 44.2°F6.8°C 89% 2.0 mph NNW3.2 kmh NNW 12.0 mph19.3 kmh 29.77 in1008.1 mb 0.00 in0.0 mm 0.00 in/hr0.0 mm/hr 0.00 in0.0 mm
01:55 AM 47.4°F8.6°C 44.3°F6.8°C 89% Calm Calm 5.0 mph8.0 kmh 29.77 in1008.1 mb 0.00 in0.0 mm 0.00 in/hr0.0 mm/hr 0.00 in0.0 mm
01:40 AM 47.7°F8.7°C 44.3°F6.8°C 88% Calm Calm 5.0 mph8.0 kmh 29.77 in1008.1 mb 0.00 in0.0 mm 0.00 in/hr0.0 mm/hr 0.00 in0.0 mm
01:25 AM 48.1°F8.9°C 44.4°F6.9°C 87% 3.0 mph WNW4.8 kmh WNW 6.0 mph9.7 kmh 29.77 in1008.1 mb 0.00 in0.0 mm 0.00 in/hr0.0 mm/hr 0.00 in0.0 mm
01:10 AM 48.4°F9.1°C 44.4°F6.9°C 86% 2.0 mph NW3.2 kmh NW 7.0 mph11.3 kmh 29.77 in1008.1 mb 0.00 in0.0 mm 0.00 in/hr0.0 mm/hr 0.00 in0.0 mm
12:55 AM 48.7°F9.3°C 44.7°F7.1°C 86% 4.0 mph NW6.4 kmh NW 9.0 mph14.5 kmh 29.76 in1007.8 mb 0.00 in0.0 mm 0.00 in/hr0.0 mm/hr 0.00 in0.0 mm
12:40 AM 49.1°F9.5°C 44.8°F7.1°C 85% 3.0 mph WNW4.8 kmh WNW 6.0 mph9.7 kmh 29.77 in1008.1 mb 0.00 in0.0 mm 0.00 in/hr0.0 mm/hr 0.00 in0.0 mm
12:25 AM 49.4°F9.7°C 45.1°F7.3°C 85% 2.0 mph NW3.2 kmh NW 6.0 mph9.7 kmh 29.77 in1008.1 mb 0.00 in0.0 mm 0.00 in/hr0.0 mm/hr 0.00 in0.0 mm
12:10 AM 49.6°F9.8°C 45.3°F7.4°C 85% 5.0 mph NW8.0 kmh NW 11.0 mph17.7 kmh 29.77 in1008.1 mb 0.00 in0.0 mm 0.00 in/hr0.0 mm/hr 0.00 in0.0 mm